Campbell River Airport
CYBL : rendu visible

Aérodrome :











RETROUVEZ-NOUS SUR...

 
LOGIN :

S'inscrire | Disclaimer

   EN    FR    IT 

 









Légende :    VFR   VFR Marginal   IFR   IFR Intensif   IFR Très Intensif
Visi : 
Plafond : 
>= 8 km
>= 3000ft
5 à 8 km
1000 à 3000 ft
1500m à 5 km
500 à 1000 ft
800 à 1500m
200 à 500 ft
< 800m
< 200 ft
Symboles :   Orages  Brouillard  Fortes neiges  Fortes précipitations  Vent > 20 kt






- Altitude de l'aérodrome : 346 ft
- Code IATA : YBL


CYBL - Campbell River

DERNIER METAR :
  • 092300Z 36010KT 30SM FEW250 19/03 A3011 RMK CI2 SLP198 DENSITY ALT 700FT

METARs EXPIRÉS :
  • 092200Z 09007KT 010V110 30SM FEW250 17/03 A3012 RMK CI2 SLP202 DENSITY ALT 500FT
  • 092100Z 07005KT 040V120 30SM FEW250 16/03 A3014 RMK CI2 SLP209

TAF TAF CYBL
Valide du 09 à 19h jusqu'au 10 à 04h UTC


091838Z 0919/1004 31008KT P6SM SCT250 RMK NXT FCST BY 100100Z



MET'MAP, la Météo Aéronautique d'un coup d'oeil ! - Copyright ORBIFLY Décembre 2007 - Disclaimer

ORBIFLY MET'MAP TEAM :

Programmation & Développement : Alexandra Zaïnal
Sur une idée originale de : Baudouin d'Aumeries
Assistance à la programmation : Marc-Olivier Méhu
Soutien technique & logistique : Manuel Goepfert

Contact : metmap@orbifly.com




SOURCES & CREDITS :

   NOAA       Earth
Advisory